Time;durP1;ratioP1;P1;durP2;ratioP2;P2;SDS_P1;SDS_P2;PMS_P1;PMS_P2;Temp;Humidity;BMP_temperature;BMP_pressure;BME280_temperature;BME280_humidity;BME280_pressure;Samples;Min_cycle;Max_cycle;Signal;HPM_P1;HPM_P2
2022/09/13 00:01:05;;;;;;;11.27;10.37;;;;;;;13.94;81.76;92678.72;5070566;28;20177;-72
2022/09/13 00:03:31;;;;;;;11.97;11.07;;;;;;;13.81;82.16;92674.28;5070134;28;20233;-72
2022/09/13 00:05:56;;;;;;;12.43;11.47;;;;;;;13.79;82.28;92673.03;5069730;28;20229;-73
2022/09/13 00:08:22;;;;;;;12.30;11.40;;;;;;;13.79;82.64;92676.41;5066411;28;20200;-73
2022/09/13 00:10:48;;;;;;;12.17;11.20;;;;;;;13.78;82.36;92672.25;5077710;28;20205;-72
2022/09/13 00:13:15;;;;;;;12.37;11.27;;;;;;;13.83;82.42;92669.53;5068897;28;20185;-73
2022/09/13 00:15:48;;;;;;;12.53;11.53;;;;;;;13.82;82.98;92667.97;5044646;28;20229;-73
2022/09/13 00:18:15;;;;;;;12.47;11.23;;;;;;;13.97;82.75;92674.72;5048973;28;20900;-73
2022/09/13 00:20:40;;;;;;;11.60;10.70;;;;;;;13.95;82.58;92667.16;5049728;28;20214;-73
2022/09/13 00:23:06;;;;;;;13.33;12.23;;;;;;;13.98;82.53;92656.06;5049605;28;20242;-73
2022/09/13 00:25:31;;;;;;;12.43;11.60;;;;;;;14.04;82.34;92660.09;5039464;28;20237;-73
2022/09/13 00:27:57;;;;;;;12.97;12.03;;;;;;;14.06;82.23;92647.47;5048123;28;20193;-73
2022/09/13 00:30:22;;;;;;;12.93;11.93;;;;;;;14.01;82.57;92644.16;5044882;28;20266;-73
2022/09/13 00:32:48;;;;;;;13.13;11.80;;;;;;;14.08;82.24;92655.03;5047858;28;20170;-73
2022/09/13 00:35:13;;;;;;;12.70;11.60;;;;;;;14.10;81.93;92645.78;5062677;28;20233;-73
2022/09/13 00:37:38;;;;;;;12.37;11.47;;;;;;;14.20;81.63;92650.03;5068160;28;20170;-73
2022/09/13 00:40:05;;;;;;;12.23;11.33;;;;;;;14.16;81.94;92649.09;5068730;28;20213;-73
2022/09/13 00:42:31;;;;;;;12.73;11.73;;;;;;;14.16;81.77;92647.22;5069529;28;20178;-73
2022/09/13 00:45:09;;;;;;;12.60;11.70;;;;;;;14.19;82.10;92649.25;5068091;28;20221;-73
2022/09/13 00:47:41;;;;;;;12.47;11.57;;;;;;;14.20;81.59;92648.19;5069643;28;20184;-73
2022/09/13 00:50:20;;;;;;;12.03;11.10;;;;;;;14.23;81.25;92642.34;5068617;28;20217;-73
2022/09/13 00:53:13;;;;;;;11.50;10.60;;;;;;;14.26;81.18;92635.72;5063039;28;20192;-73
2022/09/13 00:55:48;;;;;;;11.50;10.53;;;;;;;14.31;80.97;92635.59;5065994;28;20217;-73
2022/09/13 00:58:26;;;;;;;12.40;11.50;;;;;;;14.20;80.69;92621.94;5068890;28;20181;-73
2022/09/13 01:00:54;;;;;;;12.73;11.83;;;;;;;14.18;80.71;92634.56;5057131;28;20209;-73
2022/09/13 01:03:23;;;;;;;12.23;11.40;;;;;;;14.17;81.22;92627.78;5067218;28;20225;-73
2022/09/13 01:05:59;;;;;;;13.07;11.93;;;;;;;14.20;80.68;92640.31;5083154;28;20224;-73
2022/09/13 01:08:26;;;;;;;13.00;12.10;;;;;;;14.26;80.36;92626.00;5068764;28;20185;-73
2022/09/13 01:10:53;;;;;;;12.93;11.73;;;;;;;14.38;80.78;92643.84;5067164;28;20232;-73
2022/09/13 01:13:22;;;;;;;11.20;10.40;;;;;;;14.37;80.44;92642.28;5069260;28;20183;-73
2022/09/13 01:15:47;;;;;;;12.77;11.83;;;;;;;14.33;80.62;92636.09;5069392;28;20218;-73
2022/09/13 01:18:13;;;;;;;11.90;11.00;;;;;;;14.25;80.84;92632.34;5069457;28;20216;-73
2022/09/13 01:21:02;;;;;;;11.67;10.80;;;;;;;14.29;80.71;92635.13;5069293;28;20221;-73
2022/09/13 01:23:28;;;;;;;12.23;11.23;;;;;;;14.35;80.84;92631.28;5060423;28;20231;-73
2022/09/13 01:26:18;;;;;;;12.47;11.47;;;;;;;14.32;80.72;92637.94;5072641;28;20223;-73
2022/09/13 01:29:16;;;;;;;11.90;11.00;;;;;;;14.26;81.01;92626.00;5073352;28;20189;-72
2022/09/13 01:32:06;;;;;;;11.53;10.83;;;;;;;14.28;81.35;92636.22;5045947;28;20181;-73
2022/09/13 01:34:34;;;;;;;11.43;10.53;;;;;;;14.24;81.62;92637.91;5049083;28;20218;-73
2022/09/13 01:37:16;;;;;;;10.17;9.47;;;;;;;14.27;81.33;92627.53;5049561;28;20190;-73
2022/09/13 01:39:54;;;;;;;11.57;10.60;;;;;;;14.37;81.19;92632.56;5048027;28;20218;-73
2022/09/13 01:42:35;;;;;;;11.17;10.10;;;;;;;14.31;81.11;92623.25;5045518;28;20197;-73
2022/09/13 01:45:22;;;;;;;12.43;11.43;;;;;;;14.32;80.76;92621.41;5058641;28;20236;-73
2022/09/13 01:48:06;;;;;;;10.63;10.03;;;;;;;14.23;80.40;92602.94;5063183;28;21859;-74
2022/09/13 01:51:01;;;;;;;11.70;10.63;;;;;;;14.31;80.55;92625.88;5052048;28;20213;-73
2022/09/13 01:53:57;;;;;;;12.07;11.27;;;;;;;14.16;81.08;92620.97;5048884;28;20237;-73
2022/09/13 01:56:30;;;;;;;11.33;10.63;;;;;;;14.09;81.35;92610.13;5069012;28;20232;-73
2022/09/13 01:59:00;;;;;;;12.03;11.13;;;;;;;14.05;81.81;92613.63;5068881;28;20260;-73
2022/09/13 02:01:51;;;;;;;11.90;11.13;;;;;;;14.12;81.63;92622.66;5069494;28;20251;-72
2022/09/13 02:04:22;;;;;;;12.00;11.17;;;;;;;14.15;81.59;92608.91;5066228;28;20239;-73
2022/09/13 02:07:01;;;;;;;11.33;10.57;;;;;;;13.95;81.50;92601.53;5071542;28;20197;-73
2022/09/13 02:09:30;;;;;;;10.87;10.07;;;;;;;14.14;81.89;92623.13;5072569;28;20217;-73
2022/09/13 02:12:02;;;;;;;11.43;10.73;;;;;;;14.08;81.89;92616.44;5073137;28;20201;-73
2022/09/13 02:14:36;;;;;;;10.87;10.20;;;;;;;14.07;82.04;92614.13;5069231;28;20229;-74
2022/09/13 02:17:06;;;;;;;11.30;10.17;;;;;;;14.01;82.10;92602.97;5071956;28;20249;-73
2022/09/13 02:19:40;;;;;;;11.77;10.93;;;;;;;13.89;82.22;92607.97;5062176;28;20316;-73
2022/09/13 02:22:07;;;;;;;12.20;11.10;;;;;;;13.89;82.33;92609.81;5072580;28;20208;-73
2022/09/13 02:24:36;;;;;;;11.37;10.67;;;;;;;14.02;82.28;92614.25;5072570;28;20232;-73
2022/09/13 02:27:07;;;;;;;12.40;11.40;;;;;;;13.88;82.64;92611.66;5073107;28;20185;-73
2022/09/13 02:29:36;;;;;;;11.37;10.57;;;;;;;13.92;82.52;92610.00;5073074;28;20239;-73
2022/09/13 02:32:23;;;;;;;12.00;11.13;;;;;;;13.83;82.85;92611.78;5073899;28;20185;-73
2022/09/13 02:34:57;;;;;;;10.97;10.37;;;;;;;13.74;82.87;92608.31;5072031;28;20243;-73
2022/09/13 02:37:27;;;;;;;11.17;10.37;;;;;;;13.79;82.96;92608.19;5072086;28;20192;-73
2022/09/13 02:39:57;;;;;;;10.97;10.27;;;;;;;13.76;83.10;92621.91;5081561;28;20220;-74
2022/09/13 02:42:35;;;;;;;11.30;10.60;;;;;;;13.67;83.05;92621.06;5068147;28;20177;-73
2022/09/13 02:45:01;;;;;;;11.57;10.77;;;;;;;13.67;83.30;92622.91;5062389;28;20222;-73
2022/09/13 02:47:29;;;;;;;11.70;10.77;;;;;;;13.69;83.08;92626.81;5052371;28;20241;-73
2022/09/13 02:50:18;;;;;;;12.37;11.40;;;;;;;13.60;83.40;92612.06;5050476;28;20270;-73
2022/09/13 02:53:13;;;;;;;10.83;10.20;;;;;;;13.64;83.55;92624.28;5052578;28;20731;-73
2022/09/13 02:55:57;;;;;;;11.70;10.83;;;;;;;13.57;83.70;92623.16;5042821;28;20230;-73
2022/09/13 02:58:30;;;;;;;12.07;10.90;;;;;;;13.55;83.10;92615.59;5052404;28;20178;-73
2022/09/13 03:00:56;;;;;;;11.77;10.77;;;;;;;13.66;83.22;92624.00;5051284;28;20229;-73
2022/09/13 03:03:23;;;;;;;12.20;11.20;;;;;;;13.74;82.07;92629.28;5051066;28;20222;-73
2022/09/13 03:05:48;;;;;;;11.43;10.63;;;;;;;13.61;81.82;92619.63;5044297;28;20257;-73
2022/09/13 03:08:16;;;;;;;11.00;10.30;;;;;;;13.58;82.49;92615.00;5052212;28;20186;-73
2022/09/13 03:10:58;;;;;;;11.17;10.27;;;;;;;13.67;82.01;92633.41;5051557;28;20272;-73
2022/09/13 03:14:02;;;;;;;10.83;10.03;;;;;;;13.58;81.80;92633.34;5049996;28;20193;-73
2022/09/13 03:16:31;;;;;;;10.97;10.37;;;;;;;13.60;81.85;92623.34;5040879;28;20209;-74
2022/09/13 03:19:35;;;;;;;11.80;11.00;;;;;;;13.61;81.06;92622.25;5050069;28;20233;-73
2022/09/13 03:22:15;;;;;;;11.50;10.70;;;;;;;13.62;80.72;92629.06;5048547;28;20197;-72
2022/09/13 03:24:52;;;;;;;12.20;11.07;;;;;;;13.73;79.68;92630.38;5050205;28;20221;-72
2022/09/13 03:27:34;;;;;;;11.80;10.90;;;;;;;13.72;79.58;92615.72;5069390;28;20185;-72
2022/09/13 03:30:07;;;;;;;11.47;10.67;;;;;;;13.74;79.98;92624.03;5070965;28;20217;-72
2022/09/13 03:32:36;;;;;;;10.97;10.17;;;;;;;13.68;80.61;92624.47;5071315;28;20185;-73
2022/09/13 03:35:33;;;;;;;11.23;10.53;;;;;;;13.71;79.97;92629.88;5071011;28;20291;-72
2022/09/13 03:38:11;;;;;;;11.30;10.27;;;;;;;13.66;79.41;92626.63;5060004;28;20198;-72
2022/09/13 03:40:48;;;;;;;10.87;10.07;;;;;;;13.70;79.77;92628.34;5065530;28;20217;-72
2022/09/13 03:43:14;;;;;;;10.97;10.20;;;;;;;13.78;79.23;92629.47;5068636;28;20191;-72
2022/09/13 03:45:50;;;;;;;11.07;10.43;;;;;;;13.67;78.60;92618.44;5069177;28;20241;-73
2022/09/13 03:48:17;;;;;;;11.50;10.90;;;;;;;13.80;78.20;92628.13;5067454;28;20174;-72
2022/09/13 03:50:45;;;;;;;10.37;9.77;;;;;;;13.75;78.50;92630.88;5067824;28;20245;-73
2022/09/13 03:53:14;;;;;;;12.47;11.67;;;;;;;13.61;78.85;92632.75;5066614;28;20189;-72
2022/09/13 03:55:41;;;;;;;11.20;10.50;;;;;;;13.52;77.97;92616.16;5068447;28;20245;-72
2022/09/13 03:58:16;;;;;;;11.43;10.63;;;;;;;13.59;77.82;92626.22;5070221;28;20186;-71
2022/09/13 04:00:43;;;;;;;11.60;10.83;;;;;;;13.47;77.81;92616.28;5068254;28;20232;-73
2022/09/13 04:03:10;;;;;;;10.43;9.83;;;;;;;13.49;78.49;92629.09;5069841;28;20232;-72
2022/09/13 04:05:35;;;;;;;12.63;11.73;;;;;;;13.42;78.80;92636.56;5066950;28;20240;-72
2022/09/13 04:08:04;;;;;;;11.90;11.10;;;;;;;13.40;79.32;92629.00;5067990;28;20181;-72
2022/09/13 04:10:30;;;;;;;12.23;11.37;;;;;;;13.37;78.64;92640.09;5070402;28;20247;-72
2022/09/13 04:12:56;;;;;;;10.90;10.30;;;;;;;13.39;79.84;92630.09;5069723;28;20173;-74
2022/09/13 04:15:22;;;;;;;11.93;11.00;;;;;;;13.40;80.04;92623.00;5068200;28;20624;-71
2022/09/13 04:17:47;;;;;;;11.10;10.30;;;;;;;13.39;79.07;92627.47;5068656;28;20253;-71
2022/09/13 04:20:13;;;;;;;10.77;10.17;;;;;;;13.48;78.73;92623.06;5061606;28;20224;-70
2022/09/13 04:22:38;;;;;;;10.80;10.20;;;;;;;13.46;78.76;92627.06;5075708;28;20216;-74
2022/09/13 04:25:05;;;;;;;10.30;9.47;;;;;;;13.43;77.88;92628.41;5069983;28;20223;-74
2022/09/13 04:27:31;;;;;;;11.63;10.90;;;;;;;13.43;78.87;92623.16;5070394;28;20258;-74
2022/09/13 04:29:56;;;;;;;11.33;10.43;;;;;;;13.40;78.36;92626.38;5068295;28;20229;-73
2022/09/13 04:32:22;;;;;;;11.57;10.70;;;;;;;13.47;77.69;92634.63;5070358;28;20189;-74
2022/09/13 04:34:47;;;;;;;11.57;10.97;;;;;;;13.39;76.54;92629.28;5069872;28;20225;-74
2022/09/13 04:37:12;;;;;;;11.03;10.33;;;;;;;13.65;76.48;92641.56;5070293;28;20241;-75
2022/09/13 04:39:38;;;;;;;11.23;10.53;;;;;;;13.49;76.21;92614.13;5069956;28;20233;-78
2022/09/13 04:42:04;;;;;;;12.17;11.40;;;;;;;13.68;76.33;92643.59;5068408;28;20177;-81
2022/09/13 04:44:29;;;;;;;11.13;10.23;;;;;;;13.58;75.64;92641.22;5067798;28;20259;-75
2022/09/13 04:46:55;;;;;;;12.50;11.50;;;;;;;13.68;74.74;92651.47;5064656;28;20210;-75
2022/09/13 04:49:20;;;;;;;10.43;9.93;;;;;;;13.74;74.61;92650.28;5060667;28;20235;-74
2022/09/13 04:51:47;;;;;;;11.03;10.27;;;;;;;13.86;74.23;92652.41;5066453;28;20245;-76
2022/09/13 04:54:13;;;;;;;12.27;11.67;;;;;;;13.87;74.05;92654.72;5068219;28;20225;-75
2022/09/13 04:56:39;;;;;;;11.80;11.20;;;;;;;13.98;73.66;92645.56;5067369;28;20213;-76
2022/09/13 04:59:05;;;;;;;11.67;10.87;;;;;;;13.95;73.63;92640.13;5067348;28;20224;-76
2022/09/13 05:01:31;;;;;;;9.53;9.03;;;;;;;13.97;73.75;92643.22;5064197;28;20178;-76
2022/09/13 05:03:56;;;;;;;11.80;10.83;;;;;;;14.10;73.81;92658.91;5062967;28;20293;-76
2022/09/13 05:06:22;;;;;;;11.00;10.47;;;;;;;14.02;73.60;92645.75;5066293;28;20197;-76
2022/09/13 05:08:54;;;;;;;10.07;9.57;;;;;;;14.19;74.28;92657.13;5067173;28;20190;-75
2022/09/13 05:11:22;;;;;;;11.03;10.33;;;;;;;14.16;72.87;92660.34;5055139;28;20174;-77
2022/09/13 05:13:54;;;;;;;11.50;10.73;;;;;;;14.33;72.33;92649.97;5064424;28;20193;-75
2022/09/13 05:16:21;;;;;;;10.33;9.30;;;;;;;14.54;72.23;92639.00;5067838;28;20189;-76
2022/09/13 05:18:46;;;;;;;9.60;9.10;;;;;;;14.95;71.27;92657.88;5066343;28;20205;-73
2022/09/13 05:21:12;;;;;;;10.57;9.77;;;;;;;14.94;70.62;92640.56;5049161;28;20205;-74
2022/09/13 05:23:37;;;;;;;10.03;9.40;;;;;;;15.29;70.03;92658.00;5049136;28;20198;-74
2022/09/13 05:26:05;;;;;;;10.43;9.93;;;;;;;15.44;68.63;92660.25;5061702;28;20608;-74
2022/09/13 05:28:32;;;;;;;10.10;9.50;;;;;;;15.68;68.33;92671.13;5068686;28;20224;-75
2022/09/13 05:30:59;;;;;;;9.60;9.10;;;;;;;15.78;66.91;92653.16;5049619;28;20218;-76
2022/09/13 05:33:27;;;;;;;9.93;9.43;;;;;;;15.66;67.44;92615.38;5043249;28;20186;-76
2022/09/13 05:35:53;;;;;;;10.13;9.53;;;;;;;15.69;66.53;92652.38;5086196;28;20250;-75
2022/09/13 05:38:18;;;;;;;10.53;9.93;;;;;;;15.53;67.27;92666.31;5073372;28;20208;-74
2022/09/13 05:40:44;;;;;;;10.07;9.37;;;;;;;15.63;67.20;92652.84;5066716;28;20229;-75
2022/09/13 05:43:09;;;;;;;9.70;9.10;;;;;;;15.11;67.55;92665.06;5062863;28;20190;-75
2022/09/13 05:45:35;;;;;;;9.63;8.97;;;;;;;15.24;67.92;92666.03;5074247;28;20221;-73
2022/09/13 05:48:00;;;;;;;9.47;8.90;;;;;;;15.37;67.22;92663.28;5067953;28;20212;-73
2022/09/13 05:50:26;;;;;;;11.20;10.40;;;;;;;15.26;66.83;92640.19;5049588;28;20220;-77
2022/09/13 05:52:52;;;;;;;10.03;9.43;;;;;;;15.47;67.15;92675.41;5048897;28;20205;-73
2022/09/13 05:55:18;;;;;;;10.80;10.10;;;;;;;15.29;67.26;92664.03;5052572;28;20230;-76
2022/09/13 05:57:43;;;;;;;10.20;9.53;;;;;;;15.63;66.56;92668.63;5062995;28;20347;-77
2022/09/13 06:00:09;;;;;;;10.60;10.00;;;;;;;15.21;67.82;92661.38;5062925;28;20241;-76
2022/09/13 06:02:35;;;;;;;10.80;10.20;;;;;;;15.32;67.17;92667.91;5068357;28;20217;-75
2022/09/13 06:05:00;;;;;;;10.50;9.80;;;;;;;15.43;67.11;92669.22;5066500;28;20255;-76
2022/09/13 06:07:27;;;;;;;11.37;10.67;;;;;;;15.28;67.65;92669.59;5068031;28;20182;-75
2022/09/13 06:09:53;;;;;;;10.90;10.23;;;;;;;15.18;68.28;92672.50;5055570;28;20289;-77
2022/09/13 06:12:18;;;;;;;10.73;10.03;;;;;;;15.15;67.62;92679.16;5048056;28;20193;-78
2022/09/13 06:14:43;;;;;;;11.20;10.53;;;;;;;15.24;68.13;92677.31;5047906;28;20944;-80
2022/09/13 06:17:09;;;;;;;10.20;9.70;;;;;;;15.29;67.91;92673.78;5041733;28;20241;-81
2022/09/13 06:19:34;;;;;;;10.27;9.77;;;;;;;15.49;67.12;92681.91;5044514;28;20221;-82
2022/09/13 06:22:00;;;;;;;10.80;10.17;;;;;;;15.22;66.14;92652.41;5047597;28;20194;-78
2022/09/13 06:24:25;;;;;;;10.07;9.57;;;;;;;15.47;67.26;92678.06;5047443;28;20228;-79
2022/09/13 06:26:50;;;;;;;11.03;10.33;;;;;;;15.56;65.83;92676.22;5047943;28;20190;-78
2022/09/13 06:29:16;;;;;;;10.03;9.43;;;;;;;15.62;67.59;92686.28;5053393;28;20237;-81
2022/09/13 06:31:43;;;;;;;10.30;9.70;;;;;;;15.49;66.41;92691.66;5064954;28;20192;-77
2022/09/13 06:34:12;;;;;;;10.30;9.80;;;;;;;15.65;66.60;92684.91;5066638;28;20229;-78
2022/09/13 06:36:38;;;;;;;10.13;9.53;;;;;;;15.57;67.44;92690.91;5067135;28;20197;-76
2022/09/13 06:39:05;;;;;;;10.43;9.83;;;;;;;16.10;65.38;92696.72;5065981;28;20229;-78
2022/09/13 06:41:31;;;;;;;10.90;10.30;;;;;;;15.89;65.97;92693.91;5066029;28;20174;-77
2022/09/13 06:43:59;;;;;;;10.70;10.03;;;;;;;15.87;65.84;92701.34;5065778;28;20236;-82
2022/09/13 06:46:26;;;;;;;10.33;9.77;;;;;;;15.73;67.13;92694.66;5066770;28;20209;-81
2022/09/13 06:48:52;;;;;;;10.40;9.90;;;;;;;15.88;67.53;92708.16;5061571;28;20200;-76
2022/09/13 06:51:21;;;;;;;11.50;10.60;;;;;;;16.21;66.45;92694.53;5067434;28;20194;-77
2022/09/13 06:53:47;;;;;;;10.47;9.87;;;;;;;16.15;66.25;92708.97;5070433;28;20197;-77
2022/09/13 06:56:36;;;;;;;10.90;10.30;;;;;;;16.11;65.84;92715.94;5071254;28;20259;-75
2022/09/13 06:59:05;;;;;;;10.37;9.77;;;;;;;16.37;65.95;92704.31;5065936;28;20229;-74
2022/09/13 07:01:33;;;;;;;13.40;12.60;;;;;;;16.19;63.89;92697.47;5065941;28;20226;-76
2022/09/13 07:04:01;;;;;;;10.27;9.70;;;;;;;16.14;65.59;92725.84;5066970;28;20252;-74
2022/09/13 07:06:30;;;;;;;9.70;9.20;;;;;;;16.26;64.59;92708.34;5065301;28;20209;-75
2022/09/13 07:08:57;;;;;;;10.73;10.13;;;;;;;16.27;65.94;92717.78;5058046;28;20242;-75
2022/09/13 07:11:24;;;;;;;11.20;10.60;;;;;;;16.03;65.59;92728.03;5070179;28;20185;-77
2022/09/13 07:13:55;;;;;;;10.23;9.60;;;;;;;16.15;64.23;92719.50;5069190;28;20230;-78
2022/09/13 07:16:27;;;;;;;10.33;9.83;;;;;;;16.27;65.47;92720.44;5067024;28;20186;-78
2022/09/13 07:18:54;;;;;;;10.77;10.17;;;;;;;16.49;64.34;92728.22;5065694;28;20244;-75
2022/09/13 07:21:21;;;;;;;10.20;9.60;;;;;;;16.45;63.86;92734.41;5071443;28;20253;-75
2022/09/13 07:23:46;;;;;;;9.93;9.33;;;;;;;16.32;64.85;92730.81;5060982;28;20178;-74
2022/09/13 07:26:12;;;;;;;11.17;10.43;;;;;;;16.61;65.51;92728.34;5071324;28;20208;-75
2022/09/13 07:28:40;;;;;;;9.60;9.10;;;;;;;16.78;62.65;92738.88;5069348;28;20197;-74
2022/09/13 07:31:05;;;;;;;10.63;10.03;;;;;;;16.55;63.64;92732.22;5068241;28;20671;-75
2022/09/13 07:33:31;;;;;;;10.47;9.77;;;;;;;16.73;63.96;92728.47;5070899;28;20189;-75
2022/09/13 07:35:58;;;;;;;10.00;9.40;;;;;;;17.07;62.68;92738.97;5069466;28;20248;-74
2022/09/13 07:38:24;;;;;;;10.90;10.30;;;;;;;16.61;63.31;92724.94;5068007;28;20220;-75
2022/09/13 07:40:57;;;;;;;9.33;8.83;;;;;;;16.47;63.67;92729.63;5103124;28;20280;-74
2022/09/13 07:43:24;;;;;;;9.87;9.37;;;;;;;16.08;65.01;92741.81;5069828;28;20189;-75
2022/09/13 07:46:04;;;;;;;9.97;9.47;;;;;;;16.11;64.25;92737.75;5070356;28;20248;-75
2022/09/13 07:48:32;;;;;;;9.90;9.40;;;;;;;16.17;64.56;92739.19;5069445;28;20223;-74
2022/09/13 07:50:58;;;;;;;10.30;9.50;;;;;;;16.56;62.42;92741.69;5067951;28;20198;-73
2022/09/13 07:53:24;;;;;;;9.97;9.27;;;;;;;16.95;58.52;92748.63;5062120;28;20201;-74
2022/09/13 07:55:49;;;;;;;9.33;8.83;;;;;;;17.56;58.34;92748.91;5069560;28;20284;-75
2022/09/13 07:58:14;;;;;;;9.03;8.53;;;;;;;17.30;58.70;92734.25;5070439;28;20185;-75
2022/09/13 08:00:40;;;;;;;9.73;9.03;;;;;;;17.46;58.50;92746.63;5070038;28;20308;-77
2022/09/13 08:03:07;;;;;;;11.87;11.10;;;;;;;17.45;57.77;92752.22;5069061;28;20221;-73
2022/09/13 08:05:38;;;;;;;10.03;9.43;;;;;;;17.59;56.67;92761.50;5066225;28;20253;-74
2022/09/13 08:08:03;;;;;;;9.53;9.03;;;;;;;17.85;56.63;92747.38;5065815;28;20193;-76
2022/09/13 08:10:28;;;;;;;9.30;8.70;;;;;;;17.50;56.56;92739.63;5068786;28;20221;-76
2022/09/13 08:12:54;;;;;;;9.53;8.93;;;;;;;17.46;55.83;92759.81;5068301;28;20268;-76
2022/09/13 08:15:19;;;;;;;9.47;8.80;;;;;;;17.47;56.26;92755.31;5067621;28;20226;-75
2022/09/13 08:17:44;;;;;;;8.60;8.20;;;;;;;17.62;56.16;92746.13;5069957;28;20196;-74
2022/09/13 08:20:10;;;;;;;9.17;8.43;;;;;;;17.78;56.20;92755.03;5070036;28;21030;-74
2022/09/13 08:22:35;;;;;;;9.30;8.90;;;;;;;17.05;55.94;92750.91;5069184;28;20190;-75
2022/09/13 08:25:00;;;;;;;9.43;8.73;;;;;;;16.80;58.38;92747.25;5069645;28;20232;-74
2022/09/13 08:27:27;;;;;;;8.77;8.33;;;;;;;16.86;57.62;92748.63;5067679;28;20189;-74
2022/09/13 08:29:53;;;;;;;10.17;9.57;;;;;;;17.25;56.99;92747.59;5068470;28;20310;-75
2022/09/13 08:32:18;;;;;;;8.83;8.37;;;;;;;17.41;54.94;92744.16;5070181;28;20182;-74
2022/09/13 08:34:43;;;;;;;9.70;9.20;;;;;;;17.23;55.69;92739.25;5066151;28;20233;-74
2022/09/13 08:37:10;;;;;;;9.17;8.67;;;;;;;17.47;55.54;92739.50;5064797;28;20183;-75
2022/09/13 08:39:36;;;;;;;9.30;8.80;;;;;;;18.14;55.13;92742.06;5064398;28;20224;-75
2022/09/13 08:42:16;;;;;;;8.97;8.47;;;;;;;18.15;53.55;92748.94;5069516;28;20191;-74
2022/09/13 08:44:47;;;;;;;9.67;9.17;;;;;;;18.17;54.09;92739.56;5073720;28;20225;-74
2022/09/13 08:47:30;;;;;;;8.87;8.27;;;;;;;18.41;53.50;92754.84;5076425;28;20181;-76
2022/09/13 08:50:18;;;;;;;8.90;8.50;;;;;;;18.98;51.03;92743.28;5071093;28;20246;-75
2022/09/13 08:52:51;;;;;;;9.07;8.57;;;;;;;18.52;50.33;92743.53;5081855;28;21079;-75
2022/09/13 08:55:22;;;;;;;9.07;8.57;;;;;;;18.20;50.45;92743.44;5066768;28;20314;-75
2022/09/13 08:57:59;;;;;;;8.73;8.33;;;;;;;18.21;48.35;92737.81;5069577;28;20191;-75
2022/09/13 09:00:39;;;;;;;9.10;8.70;;;;;;;18.11;50.21;92732.16;5059471;28;20247;-76
2022/09/13 09:03:14;;;;;;;10.60;9.93;;;;;;;18.41;49.54;92734.44;5083072;28;20813;-76
2022/09/13 09:05:50;;;;;;;8.87;8.33;;;;;;;18.27;49.61;92743.72;5073415;28;20245;-76
2022/09/13 09:08:30;;;;;;;9.10;8.60;;;;;;;17.69;49.71;92741.88;5075786;28;20221;-76
2022/09/13 09:11:01;;;;;;;9.30;8.60;;;;;;;18.15;49.64;92747.03;5043560;28;20227;-75
2022/09/13 09:13:58;;;;;;;8.20;7.80;;;;;;;18.62;46.74;92739.72;5044872;28;20232;-74
2022/09/13 09:16:57;;;;;;;9.73;8.93;;;;;;;18.75;48.03;92730.75;5038924;28;20245;-75
2022/09/13 09:19:29;;;;;;;8.50;8.00;;;;;;;18.83;48.22;92743.88;5052442;28;20225;-75
2022/09/13 09:21:57;;;;;;;8.37;7.97;;;;;;;19.35;45.43;92741.53;5068784;28;20251;-75
2022/09/13 09:24:24;;;;;;;8.70;8.30;;;;;;;19.30;43.55;92738.34;5059743;28;20235;-75
2022/09/13 09:26:52;;;;;;;8.83;8.43;;;;;;;19.05;44.44;92726.88;5047486;28;20227;-75
2022/09/13 09:29:18;;;;;;;8.40;8.00;;;;;;;19.15;45.19;92731.75;5053299;28;20246;-74
2022/09/13 09:31:47;;;;;;;8.40;7.83;;;;;;;19.27;44.23;92731.00;5069299;28;20271;-75
2022/09/13 09:34:41;;;;;;;8.17;7.77;;;;;;;19.00;45.65;92729.75;5062734;28;20235;-74
2022/09/13 09:37:15;;;;;;;8.60;8.17;;;;;;;18.82;45.11;92730.97;5066720;28;20197;-75
2022/09/13 09:39:41;;;;;;;7.77;7.47;;;;;;;19.01;46.26;92716.19;5097449;28;20254;-74
2022/09/13 09:42:20;;;;;;;8.77;8.30;;;;;;;18.49;47.67;92727.56;5065315;28;20247;-74
2022/09/13 09:44:59;;;;;;;9.03;8.53;;;;;;;18.72;46.93;92718.19;5067450;28;20222;-73
2022/09/13 09:47:38;;;;;;;8.57;8.17;;;;;;;18.53;46.46;92709.94;5061478;28;20190;-73
2022/09/13 09:50:16;;;;;;;8.73;8.33;;;;;;;18.08;45.19;92714.28;5068367;28;20219;-74
2022/09/13 09:52:52;;;;;;;8.70;8.30;;;;;;;18.83;45.16;92708.75;5066675;28;20664;-75
2022/09/13 09:55:27;;;;;;;8.80;8.40;;;;;;;18.78;46.36;92715.00;5068157;28;20289;-75
2022/09/13 09:58:00;;;;;;;8.77;8.37;;;;;;;19.15;44.15;92710.56;5055471;28;20218;-75
2022/09/13 10:00:33;;;;;;;8.00;7.60;;;;;;;18.96;44.12;92707.66;5067959;28;20234;-75
2022/09/13 10:03:03;;;;;;;8.70;8.30;;;;;;;19.22;43.91;92707.41;5065960;28;20225;-75
2022/09/13 10:05:31;;;;;;;9.53;9.03;;;;;;;19.19;42.56;92690.31;5067563;28;20227;-77
2022/09/13 10:08:05;;;;;;;8.07;7.67;;;;;;;18.75;45.12;92696.38;5065717;28;20194;-76
2022/09/13 10:10:51;;;;;;;8.80;8.40;;;;;;;19.23;44.28;92693.06;5067719;28;20220;-76
2022/09/13 10:13:20;;;;;;;8.63;8.20;;;;;;;19.00;44.72;92692.69;5067223;28;20180;-76
2022/09/13 10:16:01;;;;;;;8.63;8.13;;;;;;;18.89;45.21;92686.28;5067626;28;20222;-77
2022/09/13 10:18:29;;;;;;;8.27;7.87;;;;;;;18.83;45.21;92687.56;5063887;28;20190;-76
2022/09/13 10:21:05;;;;;;;8.97;8.57;;;;;;;18.90;44.22;92685.16;5063281;28;20252;-79
2022/09/13 10:23:39;;;;;;;8.83;8.43;;;;;;;18.94;44.81;92683.41;5060502;28;20178;-76
2022/09/13 10:26:09;;;;;;;7.83;7.50;;;;;;;18.89;44.37;92678.34;5068217;28;20229;-76
2022/09/13 10:28:43;;;;;;;8.73;8.33;;;;;;;18.85;43.84;92683.50;5070994;28;20191;-74
2022/09/13 10:31:15;;;;;;;8.67;8.13;;;;;;;18.75;45.33;92686.56;5072132;28;20187;-75
2022/09/13 10:33:55;;;;;;;8.10;7.80;;;;;;;18.79;44.42;92681.38;5071915;28;20256;-75
2022/09/13 10:36:26;;;;;;;9.20;8.80;;;;;;;18.84;44.89;92679.31;5067020;28;20194;-75
2022/09/13 10:39:07;;;;;;;8.33;7.77;;;;;;;18.88;43.84;92671.47;5070199;28;20193;-75
2022/09/13 10:41:41;;;;;;;9.03;8.63;;;;;;;19.16;43.67;92669.75;5070631;28;20322;-80
2022/09/13 10:44:25;;;;;;;8.90;8.43;;;;;;;19.16;43.08;92670.53;5076098;28;20244;-76
2022/09/13 10:46:51;;;;;;;8.87;8.47;;;;;;;19.26;42.94;92671.22;5068233;28;20215;-76
2022/09/13 10:49:51;;;;;;;8.83;8.43;;;;;;;19.19;44.23;92674.44;5064835;28;20247;-74
2022/09/13 10:52:40;;;;;;;9.03;8.40;;;;;;;18.92;42.94;92645.91;5044232;28;20249;-73
2022/09/13 10:55:17;;;;;;;8.57;8.17;;;;;;;19.05;43.08;92660.72;5062660;28;20287;-72
2022/09/13 10:57:44;;;;;;;8.63;8.23;;;;;;;18.85;44.17;92658.91;5072463;28;20218;-73
2022/09/13 11:00:24;;;;;;;8.67;8.27;;;;;;;19.19;43.29;92663.84;5062891;28;20219;-72
2022/09/13 11:03:26;;;;;;;9.37;8.87;;;;;;;19.25;43.41;92635.25;5069104;28;20224;-73
2022/09/13 11:06:03;;;;;;;8.27;7.87;;;;;;;19.15;42.73;92645.19;5048734;28;20230;-75
2022/09/13 11:08:51;;;;;;;9.70;9.20;;;;;;;19.32;44.62;92657.47;5059917;28;20212;-73
2022/09/13 11:11:51;;;;;;;9.10;8.60;;;;;;;19.37;44.12;92649.31;5069599;28;20275;-72
2022/09/13 11:14:41;;;;;;;8.63;8.17;;;;;;;19.87;43.20;92664.84;5068880;28;20231;-73
2022/09/13 11:17:25;;;;;;;9.13;8.63;;;;;;;19.61;42.26;92657.22;5070695;28;20212;-73
2022/09/13 11:20:28;;;;;;;8.93;8.53;;;;;;;19.64;42.97;92664.53;5061475;28;20223;-73
2022/09/13 11:23:18;;;;;;;9.10;8.47;;;;;;;19.50;43.38;92658.81;5048953;28;20196;-73
2022/09/13 11:26:07;;;;;;;9.00;8.60;;;;;;;19.53;42.11;92652.84;5068524;28;20220;-73
2022/09/13 11:28:35;;;;;;;8.80;8.40;;;;;;;19.32;42.56;92646.88;5070911;28;20222;-73
2022/09/13 11:31:11;;;;;;;8.83;8.33;;;;;;;19.32;42.49;92651.38;5060410;28;20220;-72
2022/09/13 11:33:55;;;;;;;9.13;8.63;;;;;;;19.50;41.56;92648.22;5071431;28;20186;-73
2022/09/13 11:36:32;;;;;;;8.80;8.37;;;;;;;19.61;42.01;92645.88;5065732;28;20184;-74
2022/09/13 11:39:12;;;;;;;8.90;8.40;;;;;;;19.46;40.33;92631.44;5070992;28;20214;-73
2022/09/13 11:42:10;;;;;;;8.80;8.20;;;;;;;19.42;40.42;92635.06;5082299;28;20239;-72
2022/09/13 11:44:41;;;;;;;8.23;7.83;;;;;;;19.74;41.13;92632.28;5074419;28;20235;-72
2022/09/13 11:47:19;;;;;;;8.47;8.00;;;;;;;19.94;40.79;92630.59;5087366;28;20179;-72